Domov               UVHVVR             MKGP            O straneh              
ZDRAVSTVENO VARSTVO RASTLIN
  MREŽA AGROMET. POSTAJ
 ► PROGNOSTIČNA OBVESTILA
AGROMETEOROLOŠKI PODATKI -
ARSO
OBVLADOVANJE TVEGANJ ZARADI
NEUGODNIH VREMENSKIH RAZMER
  ► NARAVNE NESREČE
  ► SUŠA/MOČA
  ► NAMAKANJE
  ► ŽLED (gozdarstvo)
KARTOGRAFSKI PRIKAZI
SPLETNE POVEZAVE
PROJEKTI IN PUBLIKACIJE

AGROMETEOROLOŠKA MREŽA: VREMENSKE POSTAJE IN FENOLOŠKA OPAZOVANJA

Pregled podatkov za lokacijo Borovnica, meteorološka postaja 27469

Pregled senzorjev na lokaciji

ID Ime Zadnja
vrednost
Datum
zadnje
spremembe
Tip
senzorja
4324 Omočenost lista (U) 0 U 24.3.2019 13:00 A730WET
2195 Padavine (mm) 0 mm 24.3.2019 13:00 Generic 0.2 mm
1684 Relativna vlaga 2 m (% RH) 44,91 % RH 24.3.2019 13:00 Generic 0 - 100 %
1683 Temperatura 2 m (°C) 17,61 °C 24.3.2019 13:00 Generic -40 - +60 °C

Pregled podatkov zadnjih 24 ur

Zap.
št.
Datum in čas Borovnica
Omočenost
lista
Padavine Relativna
vlaga
2
m
Temperatura
2
m
1 24.3.2019 12:00 0 0 44,9 17,6
2 24.3.2019 11:30 0 0 47 16,5
3 24.3.2019 11:00 0 0 49,7 15,4
4 24.3.2019 10:30 0 0 53,8 14,1
5 24.3.2019 10:00 0 0 60,3 11,9
6 24.3.2019 09:30 0 0 67,5 10
7 24.3.2019 09:00 0 0 72,9 8,5
8 24.3.2019 08:30 0 0 80,7 6,3
9 24.3.2019 08:00 6 0 92,9 4,2
10 24.3.2019 07:30 10 0 98,6 1,3
11 24.3.2019 07:00 6 0 98,6 -1,1
12 24.3.2019 06:30 1 0 98,5 -2,2
13 24.3.2019 06:00 1 0 98,2 -2,4
14 24.3.2019 05:30 1 0 98,1 -1,3
15 24.3.2019 05:00 1 0 97,8 -1,9
16 24.3.2019 04:30 2 0 97,8 -1,1
17 24.3.2019 04:00 10 0 97,4 -1,2
18 24.3.2019 03:30 10 0 97 -0,9
19 24.3.2019 03:00 10 0 96,8 -0,6
20 24.3.2019 02:30 10 0 96,2 -0,4
21 24.3.2019 02:00 10 0 95,8 0
22 24.3.2019 01:30 10 0 94,7 0,1
23 24.3.2019 01:00 10 0 93,8 1,1
24 24.3.2019 00:30 10 0 92,8 1,3
25 24.3.2019 00:00 10 0 91,6 1,4
26 23.3.2019 23:30 10 0 89,5 1,8
27 23.3.2019 23:00 10 0 87 2,5
28 23.3.2019 22:30 10 0 82,9 3,4
29 23.3.2019 22:00 10 0 81,9 3,9
30 23.3.2019 21:30 10 0 78,8 4,4
31 23.3.2019 21:00 10 0 69 6,8
32 23.3.2019 20:30 4 0 69,2 7,1
33 23.3.2019 20:00 0 0 67,5 7,5
34 23.3.2019 19:30 0 0 60,5 9,4
35 23.3.2019 19:00 0 0 50,1 12,2
36 23.3.2019 18:30 0 0 43,6 14
37 23.3.2019 18:00 0 0 36,5 17
38 23.3.2019 17:30 0 0 32,6 18,9
39 23.3.2019 17:00 0 0 31,8 19,6
40 23.3.2019 16:30 0 0 30,5 19,9
41 23.3.2019 16:00 0 0 30,3 20
42 23.3.2019 15:30 0 0 30,7 20
43 23.3.2019 15:00 0 0 31,3 19,7
44 23.3.2019 14:30 0 0 31,4 19,5
45 23.3.2019 14:00 0 0 33,6 19,2
46 23.3.2019 13:30 0 0 34,3 19
47 23.3.2019 13:00 0 0 35,9 18,4
48 23.3.2019 12:30 0 0 39,4 17,3
© 2011 Ministrstvo za kmetijstvo, gozdarstvo in prehrano. Vse pravice pridržane.